SMZO/ORG METAR and TAF weather

Enter ICAO airport designator
Station Type Date Time Source
SMZO METAR 2020/09/19 00:00 UTC NOAA

SMZO 190000Z 16004KT 9999 FEW015 29/23 Q1010 NOSIG


Station Type Date Time Source
SMZO Decoded METAR 2020/09/19 00:00 UTC NOAA

Station name not available
Sep 18, 2020 - 08:00 PM EDT / 2020.09.19 0000 UTC
Wind: from the SSE (160 degrees) at 5 MPH (4 KT):0
Visibility: greater than 7 mile(s):0
Sky conditions: mostly clear
Temperature: 84 F (29 C)
Dew Point: 73 F (23 C)
Relative Humidity: 70%
Pressure (altimeter): 29.83 in. Hg (1010 hPa)
ob: SMZO 190000Z 16004KT 9999 FEW015 29/23 Q1010 NOSIG
cycle: 0

Station Type Date Time Source
SMZO TAF 2020/09/19 06:21 UTC NOAA

TAF TAF SMZO 190400Z 1906/2006 08005KT CAVOK TX34/1918Z TN25/1909Z
FM191200 14008KT 9999 FEW020

Example: see airport list